Time;durP1;ratioP1;P1;durP2;ratioP2;P2;SDS_P1;SDS_P2;PMS_P1;PMS_P2;Temp;Humidity;BMP_temperature;BMP_pressure;BME280_temperature;BME280_humidity;BME280_pressure;Samples;Min_cycle;Max_cycle;Signal;HPM_P1;HPM_P2
2023/11/28 00:01:49;;;;;;;10.70;5.80;;;;;;;-5.19;70.25;99254.55;108276;1254;71615;-68
2023/11/28 00:04:17;;;;;;;11.70;6.80;;;;;;;-5.19;70.54;99258.16;108219;1254;60401;-68
2023/11/28 00:06:45;;;;;;;10.90;7.00;;;;;;;-5.17;70.42;99262.66;108242;1253;60489;-68
2023/11/28 00:09:13;;;;;;;9.50;5.70;;;;;;;-5.17;70.66;99269.25;108296;1254;73850;-68
2023/11/28 00:11:48;;;;;;;12.60;7.10;;;;;;;-5.16;70.41;99268.77;108278;1253;72472;-68
2023/11/28 00:14:16;;;;;;;11.10;6.70;;;;;;;-5.15;70.57;99271.40;108333;1254;74735;-69
2023/11/28 00:16:44;;;;;;;11.40;6.50;;;;;;;-5.14;70.43;99269.77;108181;1254;60499;-68
2023/11/28 00:19:12;;;;;;;11.70;7.30;;;;;;;-5.15;70.44;99270.65;108305;1254;60392;-67
2023/11/28 00:21:40;;;;;;;12.30;7.20;;;;;;;-5.14;70.44;99271.45;108297;1254;72601;-67
2023/11/28 00:24:12;;;;;;;11.70;6.90;;;;;;;-5.13;70.47;99263.73;108195;1254;75286;-68
2023/11/28 00:26:50;;;;;;;11.50;6.80;;;;;;;-5.12;70.28;99265.64;108483;1254;73282;-67
2023/11/28 00:29:17;;;;;;;11.30;6.20;;;;;;;-5.10;70.26;99264.63;108233;1254;61681;-68
2023/11/28 00:31:45;;;;;;;12.40;7.00;;;;;;;-5.10;70.08;99267.13;108323;1252;60414;-68
2023/11/28 00:34:13;;;;;;;11.80;6.30;;;;;;;-5.10;70.02;99269.38;108330;1254;71659;-68
2023/11/28 00:36:41;;;;;;;11.60;6.50;;;;;;;-5.10;69.89;99272.73;108300;1252;72688;-67
2023/11/28 00:39:09;;;;;;;9.80;5.60;;;;;;;-5.08;69.70;99273.71;108319;1254;71647;-67
2023/11/28 00:41:37;;;;;;;9.30;5.20;;;;;;;-5.08;69.45;99276.23;108282;1255;60366;-68
2023/11/28 00:44:05;;;;;;;9.20;5.50;;;;;;;-5.03;69.29;99276.89;108181;1254;60757;-68
2023/11/28 00:46:33;;;;;;;11.10;6.80;;;;;;;-4.99;69.00;99273.14;108092;1254;73946;-67
2023/11/28 00:49:01;;;;;;;10.90;5.40;;;;;;;-4.98;68.62;99279.91;108320;1256;73724;-67
2023/11/28 00:51:29;;;;;;;11.20;5.40;;;;;;;-4.97;68.37;99278.18;108265;1256;71751;-68
2023/11/28 00:53:56;;;;;;;10.00;5.50;;;;;;;-4.93;68.20;99279.56;108394;1254;61653;-68
2023/11/28 00:56:25;;;;;;;10.70;5.30;;;;;;;-4.90;67.79;99287.48;108345;1253;60056;-69
2023/11/28 00:58:53;;;;;;;10.10;5.30;;;;;;;-4.90;67.67;99286.92;108300;1254;73938;-68
2023/11/28 01:01:21;;;;;;;10.10;5.80;;;;;;;-4.86;67.17;99287.88;108302;1254;71591;-69
2023/11/28 01:03:49;;;;;;;9.70;5.20;;;;;;;-4.83;66.68;99293.52;108306;1254;71183;-68
2023/11/28 01:06:17;;;;;;;9.20;5.20;;;;;;;-4.76;66.40;99294.45;108191;1254;61863;-68
2023/11/28 01:08:44;;;;;;;7.60;4.20;;;;;;;-4.71;65.77;99299.50;108320;1252;60395;-70
2023/11/28 01:11:13;;;;;;;9.00;4.70;;;;;;;-4.64;65.41;99301.99;108130;1257;73886;-68
2023/11/28 01:13:41;;;;;;;8.50;4.90;;;;;;;-4.59;65.03;99297.66;108278;1254;72470;-69
2023/11/28 01:16:10;;;;;;;8.00;4.80;;;;;;;-4.55;64.55;99305.59;108313;1255;72466;-67
2023/11/28 01:18:37;;;;;;;8.30;4.70;;;;;;;-4.51;64.04;99308.31;108325;1253;60836;-68
2023/11/28 01:21:07;;;;;;;8.80;4.70;;;;;;;-4.45;63.97;99310.14;108266;1254;60486;-67
2023/11/28 01:23:35;;;;;;;8.10;4.30;;;;;;;-4.42;63.58;99313.98;108197;1254;73751;-67
2023/11/28 01:26:03;;;;;;;8.00;4.10;;;;;;;-4.37;63.57;99318.86;108211;1255;71204;-68
2023/11/28 01:28:31;;;;;;;8.40;4.80;;;;;;;-4.30;63.26;99319.27;108070;1254;72645;-68
2023/11/28 01:30:58;;;;;;;7.50;4.30;;;;;;;-4.20;62.97;99319.02;108167;1255;60087;-68
2023/11/28 01:33:26;;;;;;;7.10;4.10;;;;;;;-4.13;62.79;99323.66;108226;1255;60336;-68
2023/11/28 01:35:54;;;;;;;7.90;4.30;;;;;;;-4.05;62.64;99314.31;108129;1252;72572;-69
2023/11/28 01:38:22;;;;;;;8.90;4.90;;;;;;;-3.96;62.55;99322.95;108119;1254;71518;-67
2023/11/28 01:40:50;;;;;;;7.20;3.90;;;;;;;-3.90;62.56;99327.20;108186;1254;72944;-67
2023/11/28 01:43:25;;;;;;;7.80;4.20;;;;;;;-3.84;62.22;99318.77;108243;1254;60433;-68
2023/11/28 01:45:52;;;;;;;9.90;4.60;;;;;;;-3.78;61.92;99327.87;108368;1253;59982;-68
2023/11/28 01:48:20;;;;;;;8.50;4.60;;;;;;;-3.71;61.68;99319.05;108172;1254;73091;-68
2023/11/28 01:50:48;;;;;;;7.30;4.60;;;;;;;-3.65;61.62;99321.45;108288;1257;72759;-70
2023/11/28 01:53:17;;;;;;;7.70;4.70;;;;;;;-3.64;61.57;99320.17;108295;1256;72601;-69
2023/11/28 01:55:44;;;;;;;9.70;4.80;;;;;;;-3.62;61.59;99316.77;108122;1253;60825;-68
2023/11/28 01:58:12;;;;;;;9.50;5.10;;;;;;;-3.61;61.51;99320.27;108204;1257;60274;-68
2023/11/28 02:00:39;;;;;;;8.70;4.90;;;;;;;-3.60;61.90;99324.44;108289;1254;72633;-68
2023/11/28 02:03:07;;;;;;;7.50;4.70;;;;;;;-3.60;61.72;99325.09;108238;1257;74270;-68
2023/11/28 02:05:37;;;;;;;8.00;4.80;;;;;;;-3.62;61.78;99332.28;108078;1254;72506;-68
2023/11/28 02:08:06;;;;;;;7.10;4.30;;;;;;;-3.61;61.85;99339.51;108303;1253;61698;-69
2023/11/28 02:10:35;;;;;;;8.90;4.50;;;;;;;-3.64;61.90;99333.39;108263;1254;60288;-68
2023/11/28 02:13:06;;;;;;;7.90;4.60;;;;;;;-3.64;61.80;99329.45;108248;1253;74869;-69
2023/11/28 02:15:41;;;;;;;6.40;4.10;;;;;;;-3.63;61.62;99340.09;108260;1254;72460;-70
2023/11/28 02:18:09;;;;;;;9.20;5.00;;;;;;;-3.63;61.60;99341.54;108195;1254;71497;-69
2023/11/28 02:20:38;;;;;;;9.20;4.90;;;;;;;-3.64;61.46;99338.33;108300;1254;60430;-70
2023/11/28 02:23:06;;;;;;;9.20;5.30;;;;;;;-3.64;61.36;99342.46;108193;1254;60354;-69
2023/11/28 02:25:44;;;;;;;10.50;5.10;;;;;;;-3.63;61.33;99340.09;108181;1254;72771;-69
2023/11/28 02:28:21;;;;;;;8.90;4.50;;;;;;;-3.61;61.43;99345.00;108246;1256;72936;-68
2023/11/28 02:30:48;;;;;;;7.60;4.60;;;;;;;-3.59;61.36;99346.69;108193;1254;72569;-68
2023/11/28 02:33:16;;;;;;;9.20;5.70;;;;;;;-3.57;61.45;99348.23;108270;1254;60434;-69
2023/11/28 02:35:45;;;;;;;8.60;5.20;;;;;;;-3.56;61.39;99351.69;108258;1255;60297;-68
2023/11/28 02:38:13;;;;;;;8.20;4.80;;;;;;;-3.56;61.51;99348.39;108100;1254;243917;-70
2023/11/28 02:40:41;;;;;;;6.80;4.10;;;;;;;-3.56;61.74;99349.60;108125;1254;73055;-68
2023/11/28 02:43:09;;;;;;;8.40;4.80;;;;;;;-3.57;61.75;99350.07;108292;1254;72699;-70
2023/11/28 02:45:36;;;;;;;8.00;4.50;;;;;;;-3.54;61.95;99354.95;108294;1254;60719;-68
2023/11/28 02:48:04;;;;;;;9.80;5.30;;;;;;;-3.50;62.20;99354.83;108195;1252;61114;-68
2023/11/28 02:50:32;;;;;;;9.60;6.20;;;;;;;-3.45;62.41;99356.14;108253;1254;72919;-67
2023/11/28 02:53:00;;;;;;;8.80;5.50;;;;;;;-3.40;62.42;99354.95;108262;1254;72071;-68
2023/11/28 02:55:28;;;;;;;9.80;5.60;;;;;;;-3.33;62.59;99358.06;108280;1254;70332;-71
2023/11/28 02:57:57;;;;;;;11.50;6.10;;;;;;;-3.27;62.51;99358.17;108278;1254;61666;-69
2023/11/28 03:00:25;;;;;;;9.90;5.70;;;;;;;-3.22;62.54;99358.80;108274;1252;60457;-68
2023/11/28 03:02:53;;;;;;;9.40;4.90;;;;;;;-3.19;62.63;99364.03;108262;1253;73842;-68
2023/11/28 03:05:21;;;;;;;8.40;5.00;;;;;;;-3.13;62.59;99359.51;108217;1254;72600;-68
2023/11/28 03:07:48;;;;;;;9.20;5.20;;;;;;;-3.07;62.28;99359.20;108263;1254;72438;-68
2023/11/28 03:10:16;;;;;;;11.00;5.90;;;;;;;-3.01;62.43;99362.30;108140;1255;62581;-69
2023/11/28 03:12:44;;;;;;;9.50;5.10;;;;;;;-2.96;62.21;99368.09;108292;1254;60401;-68
2023/11/28 03:15:11;;;;;;;10.70;5.80;;;;;;;-2.91;62.42;99369.99;108074;1253;73928;-68
2023/11/28 03:17:40;;;;;;;10.10;5.70;;;;;;;-2.85;62.41;99371.13;108328;1254;72671;-67
2023/11/28 03:20:12;;;;;;;9.80;5.20;;;;;;;-2.78;62.34;99369.45;108283;1254;73752;-68
2023/11/28 03:22:43;;;;;;;8.50;5.30;;;;;;;-2.75;62.30;99367.13;108310;1254;60434;-68
2023/11/28 03:25:13;;;;;;;8.80;5.30;;;;;;;-2.71;62.08;99375.02;108219;1252;59454;-67
2023/11/28 03:27:54;;;;;;;9.40;5.20;;;;;;;-2.69;61.78;99383.05;108283;1252;71790;-68
2023/11/28 03:30:30;;;;;;;8.70;5.20;;;;;;;-2.63;61.41;99383.02;108133;1252;72776;-69
2023/11/28 03:33:13;;;;;;;9.60;5.80;;;;;;;-2.58;61.30;99375.70;108117;1256;72702;-69
2023/11/28 03:36:03;;;;;;;9.50;5.30;;;;;;;-2.52;61.20;99379.33;108204;1254;60061;-70
2023/11/28 03:38:33;;;;;;;9.70;5.80;;;;;;;-2.50;61.18;99377.84;108200;1254;60338;-69
2023/11/28 03:41:04;;;;;;;8.90;5.20;;;;;;;-2.49;61.21;99381.59;108169;1253;72962;-69
2023/11/28 03:43:40;;;;;;;9.80;5.50;;;;;;;-2.48;61.06;99385.09;108014;1255;71392;-69
2023/11/28 03:46:08;;;;;;;8.80;5.20;;;;;;;-2.48;61.26;99389.79;108258;1256;72790;-67
2023/11/28 03:48:36;;;;;;;9.60;5.90;;;;;;;-2.47;61.00;99391.75;108308;1254;60278;-68
2023/11/28 03:51:04;;;;;;;11.20;6.00;;;;;;;-2.42;61.05;99391.27;108331;1254;60366;-69
2023/11/28 03:53:31;;;;;;;9.70;5.70;;;;;;;-2.39;61.02;99388.59;108331;1254;72633;-69
2023/11/28 03:56:07;;;;;;;9.30;5.50;;;;;;;-2.38;60.95;99389.51;108318;1257;74953;-69
2023/11/28 03:58:35;;;;;;;9.60;5.40;;;;;;;-2.40;61.13;99396.04;108234;1257;70703;-68
2023/11/28 04:01:04;;;;;;;9.70;5.70;;;;;;;-2.41;61.11;99403.51;108192;1255;61650;-68
2023/11/28 04:03:33;;;;;;;10.20;6.40;;;;;;;-2.42;61.31;99404.84;108246;1254;61190;-70
2023/11/28 04:06:01;;;;;;;11.30;6.40;;;;;;;-2.39;61.10;99409.20;108280;1254;73842;-69
2023/11/28 04:08:29;;;;;;;10.60;5.90;;;;;;;-2.37;61.38;99409.77;108306;1252;71435;-69
2023/11/28 04:10:56;;;;;;;9.10;5.80;;;;;;;-2.35;61.48;99416.47;108298;1254;71653;-69
2023/11/28 04:13:24;;;;;;;10.90;6.40;;;;;;;-2.30;61.45;99421.54;108308;1254;61681;-69
2023/11/28 04:15:51;;;;;;;9.70;6.10;;;;;;;-2.25;61.46;99421.78;108247;1252;62227;-69
2023/11/28 04:18:19;;;;;;;8.90;5.80;;;;;;;-2.19;61.63;99425.67;108307;1254;74070;-70
2023/11/28 04:20:49;;;;;;;11.50;7.10;;;;;;;-2.14;61.63;99430.07;108323;1254;71536;-69
2023/11/28 04:23:17;;;;;;;11.10;6.50;;;;;;;-2.07;61.86;99432.36;108314;1253;71462;-69
2023/11/28 04:25:45;;;;;;;11.50;6.80;;;;;;;-2.01;61.82;99434.36;108214;1257;60661;-69
2023/11/28 04:28:13;;;;;;;11.90;7.80;;;;;;;-1.97;61.83;99441.49;108313;1253;60399;-70
2023/11/28 04:30:41;;;;;;;13.00;7.60;;;;;;;-1.93;61.96;99442.17;108311;1252;73775;-69
2023/11/28 04:33:09;;;;;;;10.20;6.40;;;;;;;-1.90;62.02;99443.42;108335;1254;75056;-69
2023/11/28 04:35:38;;;;;;;11.40;6.70;;;;;;;-1.86;62.00;99449.21;108258;1254;71329;-69
2023/11/28 04:38:05;;;;;;;10.00;6.10;;;;;;;-1.82;62.25;99447.88;108329;1254;61537;-69
2023/11/28 04:40:33;;;;;;;9.00;5.90;;;;;;;-1.79;62.37;99446.23;108325;1253;58985;-69
2023/11/28 04:43:01;;;;;;;9.70;6.30;;;;;;;-1.75;62.37;99453.06;108243;1253;74428;-69
2023/11/28 04:45:29;;;;;;;10.50;7.00;;;;;;;-1.73;62.39;99456.77;108317;1254;72518;-69
2023/11/28 04:47:57;;;;;;;10.50;6.60;;;;;;;-1.71;62.74;99456.48;108234;1254;72724;-67
2023/11/28 04:50:24;;;;;;;11.70;6.60;;;;;;;-1.67;62.66;99449.70;108197;1254;60385;-69
2023/11/28 04:52:52;;;;;;;10.40;6.70;;;;;;;-1.64;62.76;99452.96;108299;1253;60901;-70
2023/11/28 04:55:20;;;;;;;11.00;6.70;;;;;;;-1.62;63.01;99455.39;108211;1254;73880;-68
2023/11/28 04:57:47;;;;;;;10.70;6.30;;;;;;;-1.60;63.07;99462.39;108239;1253;72828;-69
2023/11/28 05:00:16;;;;;;;12.00;8.00;;;;;;;-1.59;63.30;99464.16;108300;1253;71770;-69
2023/11/28 05:02:43;;;;;;;12.60;7.60;;;;;;;-1.57;63.41;99466.58;108145;1254;60312;-69
2023/11/28 05:05:11;;;;;;;11.60;7.20;;;;;;;-1.56;63.51;99469.51;108157;1254;60266;-69
2023/11/28 05:07:39;;;;;;;11.00;6.80;;;;;;;-1.53;63.52;99471.08;108234;1253;73833;-68
2023/11/28 05:10:08;;;;;;;12.20;7.60;;;;;;;-1.50;63.92;99470.83;108343;1254;71453;-69
2023/11/28 05:12:35;;;;;;;13.40;8.00;;;;;;;-1.47;64.01;99475.86;108228;1253;73900;-67
2023/11/28 05:15:04;;;;;;;12.30;7.60;;;;;;;-1.45;64.19;99478.55;108313;1252;59586;-69
2023/11/28 05:17:32;;;;;;;15.00;8.60;;;;;;;-1.44;64.40;99482.70;108220;1253;60385;-69
2023/11/28 05:20:02;;;;;;;13.70;8.20;;;;;;;-1.43;64.61;99486.16;108099;1254;73443;-70
2023/11/28 05:22:29;;;;;;;14.30;8.70;;;;;;;-1.42;64.55;99482.61;108223;1254;71409;-68
2023/11/28 05:24:58;;;;;;;12.90;8.50;;;;;;;-1.40;64.64;99487.09;108224;1254;71706;-69
2023/11/28 05:27:25;;;;;;;13.30;8.50;;;;;;;-1.39;64.69;99483.62;108154;1254;60971;-69
2023/11/28 05:29:53;;;;;;;13.20;8.40;;;;;;;-1.35;64.34;99489.78;108136;1254;60352;-69
2023/11/28 05:32:22;;;;;;;13.60;7.80;;;;;;;-1.32;64.26;99491.14;108281;1254;72547;-69
2023/11/28 05:34:50;;;;;;;14.60;8.40;;;;;;;-1.29;64.23;99495.23;108080;1254;71630;-70
2023/11/28 05:37:20;;;;;;;17.10;9.10;;;;;;;-1.27;64.28;99505.42;108250;1254;72367;-69
2023/11/28 05:39:47;;;;;;;13.90;8.00;;;;;;;-1.25;64.43;99510.27;108185;1254;60880;-70
2023/11/28 05:42:15;;;;;;;13.40;8.80;;;;;;;-1.21;64.59;99514.29;108188;1252;60540;-69
2023/11/28 05:44:43;;;;;;;12.90;8.30;;;;;;;-1.17;64.66;99516.70;108292;1254;73845;-69
2023/11/28 05:47:11;;;;;;;12.20;7.70;;;;;;;-1.13;64.83;99517.69;108372;1254;71419;-71
2023/11/28 05:49:38;;;;;;;12.80;7.80;;;;;;;-1.08;64.78;99517.71;108230;1253;71758;-69
2023/11/28 05:52:06;;;;;;;13.30;9.10;;;;;;;-1.04;65.23;99521.53;108240;1254;60426;-69
2023/11/28 05:54:34;;;;;;;13.10;8.50;;;;;;;-1.01;65.42;99520.31;108208;1252;60354;-69
2023/11/28 05:57:02;;;;;;;14.80;9.30;;;;;;;-0.99;65.45;99524.09;108334;1254;75918;-68
2023/11/28 05:59:30;;;;;;;12.70;8.10;;;;;;;-0.97;65.65;99528.33;108278;1254;71996;-69
2023/11/28 06:02:00;;;;;;;14.80;9.60;;;;;;;-0.96;65.96;99525.95;108362;1254;71373;-67
2023/11/28 06:04:29;;;;;;;13.60;8.50;;;;;;;-0.96;66.08;99529.56;108183;1254;60864;-68
2023/11/28 06:07:00;;;;;;;11.90;8.20;;;;;;;-0.95;66.55;99531.83;108202;1254;60328;-71
2023/11/28 06:09:28;;;;;;;13.20;8.90;;;;;;;-0.92;66.55;99534.23;108213;1254;73931;-68
2023/11/28 06:11:57;;;;;;;13.50;9.10;;;;;;;-0.89;66.61;99531.31;108282;1253;72978;-68
2023/11/28 06:14:29;;;;;;;14.80;9.60;;;;;;;-0.88;67.02;99536.16;108193;1254;72742;-69
2023/11/28 06:16:59;;;;;;;14.60;9.30;;;;;;;-0.86;67.03;99533.33;108139;1253;61338;-69
2023/11/28 06:19:28;;;;;;;14.50;9.20;;;;;;;-0.83;67.18;99532.55;108187;1254;60502;-68
2023/11/28 06:21:56;;;;;;;13.40;9.30;;;;;;;-0.80;67.26;99539.31;108297;1256;72090;-69
2023/11/28 06:24:24;;;;;;;13.40;8.90;;;;;;;-0.76;67.42;99535.39;108141;1254;71922;-69
2023/11/28 06:26:53;;;;;;;16.00;10.10;;;;;;;-0.72;67.63;99532.02;108261;1254;73020;-69
2023/11/28 06:29:22;;;;;;;16.30;10.10;;;;;;;-0.69;67.65;99531.85;108327;1253;60411;-68
2023/11/28 06:31:49;;;;;;;14.40;9.40;;;;;;;-0.64;67.78;99528.65;108288;1253;61119;-70
2023/11/28 06:34:17;;;;;;;12.60;8.60;;;;;;;-0.59;67.69;99528.02;108212;1253;72769;-66
2023/11/28 06:36:47;;;;;;;13.70;9.50;;;;;;;-0.53;67.71;99532.33;108132;1254;71744;-69
2023/11/28 06:39:15;;;;;;;14.30;9.80;;;;;;;-0.53;67.60;99535.09;108278;1252;71718;-71
2023/11/28 06:41:45;;;;;;;14.40;9.90;;;;;;;-0.53;67.26;99537.80;108187;1254;60568;-69
2023/11/28 06:44:12;;;;;;;15.30;8.90;;;;;;;-0.54;67.23;99535.29;108319;1254;60338;-68
2023/11/28 06:46:40;;;;;;;15.00;9.80;;;;;;;-0.61;67.14;99530.80;108218;1253;72648;-69
2023/11/28 06:49:08;;;;;;;13.90;9.50;;;;;;;-0.68;66.98;99539.83;108272;1254;71729;-68
2023/11/28 06:51:36;;;;;;;15.30;9.60;;;;;;;-0.76;67.05;99539.90;108286;1253;71408;-68
2023/11/28 06:54:04;;;;;;;13.10;9.10;;;;;;;-0.81;67.08;99535.98;108262;1253;60539;-68
2023/11/28 06:56:31;;;;;;;16.40;9.60;;;;;;;-0.84;66.97;99533.77;108176;1253;60439;-68
2023/11/28 06:59:01;;;;;;;14.80;9.70;;;;;;;-0.88;66.73;99531.60;108290;1253;72468;-69
2023/11/28 07:01:29;;;;;;;14.60;8.80;;;;;;;-0.91;66.59;99533.79;108304;1254;71581;-67
2023/11/28 07:03:59;;;;;;;15.10;10.00;;;;;;;-0.95;66.74;99541.34;108306;1256;71018;-68
2023/11/28 07:06:27;;;;;;;13.60;8.80;;;;;;;-0.98;66.76;99545.02;108290;1254;60617;-69
2023/11/28 07:08:55;;;;;;;14.50;9.70;;;;;;;-0.99;66.61;99551.48;108340;1254;60788;-68
2023/11/28 07:11:22;;;;;;;14.40;9.00;;;;;;;-1.03;66.45;99550.41;108174;1253;73804;-68
2023/11/28 07:13:50;;;;;;;13.80;9.30;;;;;;;-1.08;66.05;99562.48;108148;1256;73135;-68
2023/11/28 07:16:22;;;;;;;17.20;9.70;;;;;;;-1.08;66.40;99565.17;107978;1254;72701;-67
2023/11/28 07:18:50;;;;;;;;;;;;;;;-1.06;66.30;99557.73;93079;1253;10002329;-68
2023/11/28 07:21:18;;;;;;;16.40;8.70;;;;;;;-1.04;66.39;99556.40;108036;1254;60890;-67
2023/11/28 07:23:46;;;;;;;16.50;10.10;;;;;;;-1.01;66.46;99559.83;108106;1254;60364;-68
2023/11/28 07:26:14;;;;;;;14.80;9.50;;;;;;;-0.99;66.13;99557.44;108121;1256;73761;-68
2023/11/28 07:28:42;;;;;;;15.60;9.80;;;;;;;-0.98;66.26;99558.61;108217;1256;73246;-68
2023/11/28 07:31:10;;;;;;;15.60;9.30;;;;;;;-1.00;66.27;99564.67;108119;1254;71401;-68
2023/11/28 07:33:38;;;;;;;13.70;9.20;;;;;;;-1.01;65.93;99567.98;108066;1253;61001;-68
2023/11/28 07:36:12;;;;;;;13.70;9.20;;;;;;;-0.99;66.15;99570.15;108082;1254;60315;-68
2023/11/28 07:38:42;;;;;;;12.40;8.80;;;;;;;-0.91;66.01;99567.05;108149;1254;74203;-67
2023/11/28 07:41:14;;;;;;;13.50;8.30;;;;;;;-0.83;66.03;99567.69;108126;1254;75078;-68
2023/11/28 07:43:42;;;;;;;13.30;8.60;;;;;;;-0.77;65.66;99568.02;108102;1254;73150;-68
2023/11/28 07:46:10;;;;;;;15.10;9.20;;;;;;;-0.75;65.23;99569.51;107994;1253;61141;-67
2023/11/28 07:48:38;;;;;;;17.10;9.80;;;;;;;-0.73;65.14;99569.42;108164;1254;59039;-68
2023/11/28 07:51:07;;;;;;;16.20;10.00;;;;;;;-0.74;64.76;99571.27;108147;1251;73824;-68
2023/11/28 07:53:35;;;;;;;15.20;9.30;;;;;;;-0.73;64.59;99576.40;108125;1253;72722;-68
2023/11/28 07:56:04;;;;;;;13.50;9.10;;;;;;;-0.69;64.27;99579.73;108018;1254;71900;-69
2023/11/28 07:58:33;;;;;;;14.80;9.30;;;;;;;-0.58;64.38;99577.27;108076;1254;59608;-68
2023/11/28 08:01:02;;;;;;;16.20;9.00;;;;;;;-0.43;64.45;99575.96;108014;1252;62128;-68
2023/11/28 08:03:29;;;;;;;13.60;9.30;;;;;;;-0.29;64.24;99578.07;107994;1253;74002;-68
2023/11/28 08:06:03;;;;;;;14.10;9.10;;;;;;;-0.18;64.19;99576.31;108065;1256;72690;-69
2023/11/28 08:08:31;;;;;;;14.30;9.10;;;;;;;-0.09;63.57;99573.15;108020;1254;71373;-68
2023/11/28 08:10:59;;;;;;;16.00;9.80;;;;;;;-0.06;63.15;99568.69;107956;1254;62876;-67
2023/11/28 08:13:27;;;;;;;13.60;8.90;;;;;;;-0.01;62.97;99567.65;108086;1252;60234;-69
2023/11/28 08:15:57;;;;;;;14.60;9.90;;;;;;;0.05;62.86;99564.95;108096;1254;72533;-68
2023/11/28 08:18:25;;;;;;;13.40;8.70;;;;;;;0.16;62.79;99567.90;108094;1253;71108;-69
2023/11/28 08:20:53;;;;;;;13.20;8.30;;;;;;;0.29;62.70;99562.11;108035;1253;72756;-68
2023/11/28 08:23:21;;;;;;;11.90;8.50;;;;;;;0.43;62.64;99556.86;108031;1253;60357;-67
2023/11/28 08:25:50;;;;;;;13.70;8.60;;;;;;;0.56;62.64;99550.08;108062;1251;60337;-68
2023/11/28 08:28:17;;;;;;;13.80;8.10;;;;;;;0.70;62.39;99550.12;107968;1256;73931;-67
2023/11/28 08:30:45;;;;;;;12.10;8.10;;;;;;;0.77;61.86;99553.48;108036;1253;73588;-67
2023/11/28 08:33:13;;;;;;;12.50;8.10;;;;;;;0.84;61.79;99552.33;108162;1253;74893;-67
2023/11/28 08:35:40;;;;;;;12.00;8.20;;;;;;;0.90;61.56;99546.04;108115;1256;60135;-67
2023/11/28 08:38:08;;;;;;;12.30;8.20;;;;;;;0.97;61.26;99536.61;108079;1252;60371;-67
2023/11/28 08:40:36;;;;;;;13.60;9.80;;;;;;;0.98;60.73;99531.07;108129;1254;73897;-67
2023/11/28 08:43:04;;;;;;;15.40;10.20;;;;;;;0.97;60.55;99535.52;108158;1253;72703;-68
2023/11/28 08:45:31;;;;;;;14.00;9.40;;;;;;;1.03;60.50;99536.42;108102;1253;70419;-67
2023/11/28 08:47:59;;;;;;;16.10;10.40;;;;;;;1.11;60.46;99536.17;108178;1252;61586;-68
2023/11/28 08:50:27;;;;;;;12.20;9.00;;;;;;;1.22;60.53;99536.45;108105;1252;60297;-68
2023/11/28 08:52:54;;;;;;;12.50;8.60;;;;;;;1.33;60.31;99534.17;108046;1252;73866;-67
2023/11/28 08:55:22;;;;;;;14.50;8.70;;;;;;;1.44;60.22;99533.72;108111;1253;72603;-68
2023/11/28 08:57:50;;;;;;;13.40;9.30;;;;;;;1.52;59.68;99536.16;107992;1254;72814;-68
2023/11/28 09:00:18;;;;;;;11.70;8.50;;;;;;;1.53;59.13;99534.45;108045;1252;59261;-67
2023/11/28 09:02:46;;;;;;;12.90;8.50;;;;;;;1.51;58.76;99532.98;107964;1253;60495;-67
2023/11/28 09:05:15;;;;;;;11.90;8.20;;;;;;;1.54;58.54;99534.63;108001;1253;72597;-68
2023/11/28 09:07:57;;;;;;;11.90;8.20;;;;;;;1.60;58.46;99532.69;108079;1253;72724;-68
2023/11/28 09:10:45;;;;;;;11.80;7.60;;;;;;;1.70;58.27;99531.84;108021;1254;73777;-69
2023/11/28 09:13:12;;;;;;;12.60;9.10;;;;;;;1.76;58.09;99534.42;108053;1253;60853;-68
2023/11/28 09:15:40;;;;;;;13.60;9.70;;;;;;;1.81;58.01;99533.59;108090;1252;60323;-69
2023/11/28 09:18:08;;;;;;;14.60;9.30;;;;;;;1.90;57.81;99531.72;108092;1251;73924;-68
2023/11/28 09:20:36;;;;;;;13.20;9.40;;;;;;;1.93;57.68;99524.98;108114;1252;71340;-68
2023/11/28 09:23:04;;;;;;;14.20;9.50;;;;;;;1.97;57.63;99524.71;108132;1256;72657;-67
2023/11/28 09:25:32;;;;;;;14.40;9.50;;;;;;;2.03;57.72;99527.30;108149;1254;60313;-68
2023/11/28 09:28:00;;;;;;;12.50;9.10;;;;;;;2.08;57.49;99525.28;108253;1252;60316;-68
2023/11/28 09:30:27;;;;;;;13.10;8.40;;;;;;;2.15;57.42;99525.58;108175;1253;73879;-68
2023/11/28 09:32:56;;;;;;;13.30;9.10;;;;;;;2.22;57.32;99524.42;108301;1254;71237;-68
2023/11/28 09:35:24;;;;;;;12.30;8.80;;;;;;;2.25;57.33;99528.94;108213;1253;71390;-67
2023/11/28 09:37:54;;;;;;;13.40;9.40;;;;;;;2.27;57.22;99522.59;108279;1253;59229;-68
2023/11/28 09:40:23;;;;;;;13.30;8.70;;;;;;;2.24;57.12;99521.64;108309;1252;59232;-66
2023/11/28 09:42:51;;;;;;;12.90;9.10;;;;;;;2.26;56.93;99523.52;108284;1254;73809;-67
2023/11/28 09:45:20;;;;;;;14.40;9.20;;;;;;;2.30;56.90;99522.19;108227;1253;72959;-68
2023/11/28 09:47:48;;;;;;;13.60;8.90;;;;;;;2.33;56.64;99517.80;108190;1253;75326;-68
2023/11/28 09:50:15;;;;;;;11.00;8.20;;;;;;;2.38;56.52;99513.54;108144;1253;60389;-68
2023/11/28 09:52:43;;;;;;;11.90;7.90;;;;;;;2.44;56.32;99516.25;108085;1252;60283;-68
2023/11/28 09:55:14;;;;;;;11.70;7.80;;;;;;;2.50;56.36;99515.77;108220;1253;73791;-67
2023/11/28 09:57:45;;;;;;;14.40;9.30;;;;;;;2.55;56.22;99509.59;108235;1253;71432;-68
2023/11/28 10:00:17;;;;;;;17.30;10.30;;;;;;;2.58;56.05;99510.55;108277;1254;73777;-67
2023/11/28 10:02:45;;;;;;;;;;;;;;;2.59;56.12;99509.67;108326;1254;59930;-68
2023/11/28 10:05:14;;;;;;;14.50;9.10;;;;;;;2.62;55.96;99508.79;108251;1254;61906;-67
2023/11/28 10:07:44;;;;;;;16.80;11.00;;;;;;;2.60;55.98;99503.63;108358;1253;72557;-68
2023/11/28 10:10:12;;;;;;;14.20;9.70;;;;;;;2.58;55.88;99504.70;108055;1254;72438;-67
2023/11/28 10:12:40;;;;;;;14.40;9.90;;;;;;;2.61;56.02;99502.19;108228;1252;70650;-68
2023/11/28 10:15:08;;;;;;;12.70;9.00;;;;;;;2.63;56.04;99500.58;108222;1252;59294;-67
2023/11/28 10:17:36;;;;;;;15.60;9.10;;;;;;;2.66;55.79;99498.11;108307;1252;60518;-66
2023/11/28 10:20:08;;;;;;;14.10;8.90;;;;;;;2.66;55.75;99495.75;108313;1252;72611;-68
2023/11/28 10:22:37;;;;;;;11.90;8.50;;;;;;;2.68;55.69;99489.45;108345;1253;72669;-67
2023/11/28 10:25:12;;;;;;;12.70;8.70;;;;;;;2.67;55.54;99485.70;108301;1254;72763;-67
2023/11/28 10:27:40;;;;;;;14.10;9.30;;;;;;;2.64;55.49;99483.11;108308;1253;60395;-66
2023/11/28 10:30:12;;;;;;;14.40;9.20;;;;;;;2.61;55.43;99482.47;108290;1252;60488;-67
2023/11/28 10:32:39;;;;;;;12.50;8.40;;;;;;;2.54;55.35;99484.75;108308;1254;74048;-66
2023/11/28 10:35:08;;;;;;;12.00;7.90;;;;;;;2.55;55.62;99487.20;108316;1254;72908;-65
2023/11/28 10:37:39;;;;;;;12.30;8.00;;;;;;;2.61;55.60;99484.52;108345;1254;72258;-67
2023/11/28 10:40:10;;;;;;;11.10;7.00;;;;;;;2.66;55.38;99486.25;108246;1254;60405;-65
2023/11/28 10:42:42;;;;;;;10.90;6.80;;;;;;;2.71;55.25;99484.31;108214;1252;60440;-66
2023/11/28 10:45:10;;;;;;;11.10;8.20;;;;;;;2.73;54.93;99478.07;108215;1252;71999;-67
2023/11/28 10:47:40;;;;;;;13.60;8.30;;;;;;;2.70;54.65;99480.11;108275;1254;72377;-66
2023/11/28 10:50:09;;;;;;;11.70;8.20;;;;;;;2.65;54.78;99493.04;108176;1254;72961;-67
2023/11/28 10:52:37;;;;;;;16.40;9.60;;;;;;;2.59;54.77;99491.77;108215;1253;61505;-66
2023/11/28 10:55:12;;;;;;;16.10;10.30;;;;;;;2.52;54.88;99496.39;108317;1254;59763;-65
2023/11/28 10:57:53;;;;;;;15.60;9.90;;;;;;;2.42;55.02;99497.70;108307;1252;74717;-66
2023/11/28 11:00:24;;;;;;;12.10;8.80;;;;;;;2.33;55.34;99497.92;108347;1253;71339;-67
2023/11/28 11:02:54;;;;;;;17.10;9.60;;;;;;;2.28;55.48;99500.70;108298;1253;74038;-66
2023/11/28 11:05:23;;;;;;;16.20;10.00;;;;;;;2.23;55.66;99502.59;108257;1256;60331;-66
2023/11/28 11:07:51;;;;;;;16.70;10.20;;;;;;;2.22;55.75;99508.46;108314;1254;60744;-66
2023/11/28 11:10:19;;;;;;;13.60;9.00;;;;;;;2.22;55.95;99509.99;108201;1252;72570;-67
2023/11/28 11:12:49;;;;;;;21.40;11.40;;;;;;;2.20;55.92;99506.79;108226;1253;72693;-66
2023/11/28 11:15:23;;;;;;;23.20;11.10;;;;;;;2.20;55.99;99507.98;108298;1254;72730;-67
2023/11/28 11:17:51;;;;;;;15.00;9.90;;;;;;;2.21;56.23;99509.19;108286;1253;60459;-65
2023/11/28 11:20:19;;;;;;;17.70;9.90;;;;;;;2.24;56.14;99510.05;108259;1256;61115;-67
2023/11/28 11:22:51;;;;;;;13.80;8.60;;;;;;;2.26;55.93;99509.97;108071;1254;74091;-68
2023/11/28 11:25:52;;;;;;;13.50;8.20;;;;;;;2.27;55.60;99506.98;108271;1252;73253;-67
2023/11/28 11:28:20;;;;;;;13.90;8.90;;;;;;;2.26;55.39;99501.39;108179;1253;72511;-66
2023/11/28 11:30:47;;;;;;;12.60;8.10;;;;;;;2.25;55.36;99505.59;108257;1252;60582;-68